Ride Results

State Championships Fundraiser (20-04-2013)
Ride distance: 80.0 km

Outcomes - State Championships Fundraiser (20-04-2013)
Division No. of Entries Retired / DNE Completed Withdrawn Ineligible V/O Percentage Completed
HW 8 - 7 - - 1 87.50%
MW 18 - 14 - - 4 77.78%
LW 6 - 5 - - 1 83.33%
JN 6 - 5 - - 1 83.33%
Totals 38 - 31 - - 7 81.58%
Results - State Championships Fundraiser (20-04-2013)
No. Rider Horse Place Time Leg Speeds Total
Km/Hr
H/R bpm
Heavyweight
22 Sheleah Astell Arcadian Park Merlin 1 6:00:00 14.6, 12.2 13.33 45, 51, 53 (Avg:52)
247 David Pilgrim Bahrein Lazarus 2 6:16:00 12.6, 12.9 12.77 39, 48, 44 (Avg:46)
L Greg Henry Bellawongarah Beau 3 6:26:00 13.0, 11.8 12.44 41, 43, 54 (Avg:48)
199 Salman Alkhalifa River Oak X-Saar 4 6:43:00 11.9, 11.8 11.91 42, 43, 48 (Avg:45)
140 Stuart King Black Heart Dancer 5 7:30:00 11.2, 10.1 10.67 42, 47, 46 (Avg:46)
197 Erin Gadsby Ellusive Design 6 7:33:00 11.2, 10.0 10.60 37, 42, 47 (Avg:44)
141 Tim Potter Highland View Molly 6 7:33:00 11.2, 10.0 10.60 40, 50, 51 (Avg:50)
29A Trenton Huxtable Highland View Crush Lame L2 0:00:00 15.2, 12.3 - 36, 48, 54 (Avg:51)
Middleweight
92 Blaine Astell Jamat Ibn Shakhaan 1 4:34:00 16.4, 18.7 17.52 38, 42, 54 (Avg:48)
21 Karen Quinn Merlin 1 4:34:00 16.4, 18.7 17.52 29, 43, 42 (Avg:42)
180 Nicole Ford Highland View Piper 3 4:47:00 16.5, 16.9 16.72 40, 45, 47 (Avg:46)
76 Karin Morris Rivergum Skye 4 5:17:00 15.9, 14.3 15.14 34, 45, 51 (Avg:48)
263 Linda Pilgrim Lauralyn Kaw Liija 5 6:16:00 12.6, 12.9 12.77 37, 42, 47 (Avg:44)
185 Mikaela Jago Rivergum Ripper 6 6:39:00 12.6, 11.4 12.03 32, 39, 43 (Avg:41)
57 Tania Jago Undurra Geisha 6 6:39:00 12.6, 11.4 12.03 38, 46, 53 (Avg:49)
43 Bonny Burgess Gullivor Costalot 8 6:43:00 12.0, 11.7 11.91 44, 36, 42 (Avg:39)
256 Wendy Smith Sir Angus of Seven Oaks 9 6:44:00 12.4, 11.3 11.88 40, 44, 47 (Avg:45)
69 Tracey Wyllie Brynddu Idyll 10 6:49:00 11.9, 11.4 11.74 38, 47, 48 (Avg:47)
48 Alison Colbeck Malricia Salibah 11 7:30:00 11.2, 10.1 10.67 39, 45, 50 (Avg:47)
160 Stacey Dodd Highland View Cruise 11 7:30:00 11.2, 10.1 10.67 29, 37, 42 (Avg:39)
269 Korena Armstrong Highland View Deputy 13 21:44:00 2.1, 12.2 3.68 33, 50, 43 (Avg:46)
264 Ellie Maddick Castlebar Nasa 14 22:00:00 2.0, 14.0 3.64 38, 45, 46 (Avg:45)
68 Janine Parr Harmere Natez Lame L2 0:00:00 14.0, 11.1 - 32, 49 (Avg:49)
230 Jodie Clarke Bluegrass Geronimo Lame L1 0:00:00 12.3 - 38, 45 (Avg:45)
101 Wendy Rand Shayelle Cameo Lame L1 0:00:00 18.4 - 35, 45 (Avg:45)
107 Samantha Sward Badgerlyn Zack Lame L1 0:00:00 16.5 - 35, 51 (Avg:51)
Lightweight
37A Jen Clingly Imaj Zamir 1 5:51:00 15.9, 11.9 13.68 37, 42, 49 (Avg:45)
175 Carolyn Webster Echo Austin 2 6:00:00 13.3, 13.3 13.33 35, 45, 42 (Avg:43)
262 Annemaree Kelly Yandilla Ultimate Affair 3 6:43:00 12.0, 11.7 11.91 36, 45, 49 (Avg:47)
115 Jenny Keygan Woodsong Kasanova 4 6:44:00 12.4, 11.3 11.88 27, 40, 42 (Avg:41)
203 Ellie Woodhouse Castlebar Mystro 5 6:49:00 11.9, 11.4 11.74 35, 44, 57 (Avg:50)
182 Fran Jordan Tierview Saadat Lame L2 0:00:00 15.9, 13.3 - 38, 43 (Avg:43)
Junior
186 Amelia Napier The Joker 1 5:36:00 14.5, 14.0 14.29 34, 45, 50 (Avg:47)
125 Brooke Brown-Cordell Ausden Reflection 2 6:04:00 13.2, 13.1 13.19 36, 43, 49 (Avg:46)
129 Kirsty Sward Neilly Anderton Park El Ashar 2 6:04:00 13.2, 13.1 13.19 34, 43, 45 (Avg:44)
135 Breaana Smith Ebjarah Talismin 4 6:43:00 11.9, 11.8 11.91 39, 48, 57 (Avg:52)
47 Hannah Colbeck Highland View Spirit 5 7:30:00 11.2, 10.1 10.67 40, 44, 46 (Avg:45)
74 Felicity Perry Eugrant El Adien Heart Rate L2 0:00:00 11.9, 11.4 - 37, 49, 62 (Avg:55)